Mount Vernon, KY

11:54 PM EDT on April 23, 2017 (GMT -0400)
Denny Subdivision | | Change Station

Elev 1181 ft 37.31 °N, 84.39 °W | Updated 19 seconds ago

Overcast
Overcast
53.2 °F
Feels Like 53.2 °F
N
2.0
Wind Variable Wind from NE
Gusts 6.0 mph

Today
High -- | Low -- °F
--% Chance of Precip.
Yesterday
High -- | Low -- °F
Precip. -- in
Pressure 29.88 in
Visibility 10.0 miles
Clouds Overcast 1500 ft
Dew Point 51 °F
Humidity 93%
Rainfall 0.83 in
Snow Depth Not available.
6:51 AM 8:20 PM
Waning Crescent, 8% visible
METAR KLOZ 240253Z AUTO 05005KT 10SM OVC015 12/09 A2988 RMK AO2 SLP116 60000 T01220094 53019
Pressure 29.88 in
Visibility 10.0 miles
Clouds Overcast 1500 ft
Dew Point 51 °F
Humidity 93%
Rainfall 0.83 in
Snow Depth Not available.
6:51 AM 8:20 PM
Waning Crescent, 8% visible
METAR KLOZ 240253Z AUTO 05005KT 10SM OVC015 12/09 A2988 RMK AO2 SLP116 60000 T01220094 53019

Get Severe Weather Alerts

Thanks for signing up!

Be on the lookout for a verification email in your inbox.

You'll start receiving the daily forecast at 8 AM.

×

10-Day Weather Forecast

Almanac

Astronomy

Apr. 23, 2017 Rise Set
Actual Time
Civil Twilight
Nautical Twilight
Astronomical Twilight
Moon
Length of Visible Light
Length of Day
Tomorrow will be .
, % of the Moon is Illuminated

Today's Extremes

State Highs State Lows

Community

WunderPhotos

WunderBlog® & News

Nearby

Air Quality

  Air Quality AQ Index Pollutant
Not available.

Snow Depth

Station Depth Elevation

Earthquake Activity

City Distance Mag. Time & Date
Minimum magnitude displayed is 2.5.

Coastal Water Temperatures

Place Temperature

Stations

Nearby Weather Stations

Station Location Temp. Windchill Dew Point Humidity Wind Precip. Elev Updated Type
                   

Watches & Warnings

There are currently no watches in effect.